TimeCDT,TemperatureF,Dew PointF,Humidity,Sea Level PressureIn,VisibilityMPH,Wind Direction,Wind SpeedMPH,Gust SpeedMPH,PrecipitationIn,Events,Conditions,WindDirDegrees,DateUTC
12:55 AM,71.6,63.3,75,30.10,10.0,East,10.4,-,N/A,,Clear,80,2011-10-09 05:55:00
1:55 AM,71.8,61.3,70,30.09,10.0,East,9.2,-,N/A,,Clear,90,2011-10-09 06:55:00
2:55 AM,70.0,61.2,73,30.08,10.0,ENE,9.2,-,N/A,,Clear,60,2011-10-09 07:55:00
3:55 AM,67.1,61.5,82,30.07,10.0,NE,9.2,-,N/A,,Clear,50,2011-10-09 08:55:00
4:55 AM,65.8,60.6,83,30.08,10.0,NE,9.2,-,N/A,,Clear,50,2011-10-09 09:55:00
5:55 AM,65.1,59.9,83,30.09,10.0,NE,9.2,-,N/A,,Clear,50,2011-10-09 10:55:00
6:55 AM,64.6,59.4,83,30.09,10.0,NE,10.4,-,N/A,,Clear,50,2011-10-09 11:55:00
7:55 AM,66.9,58.5,74,30.09,10.0,ENE,10.4,-,N/A,,Clear,60,2011-10-09 12:55:00
8:55 AM,70.2,58.6,67,30.10,10.0,ENE,16.1,-,N/A,,Clear,70,2011-10-09 13:55:00
9:55 AM,74.3,60.3,61,30.10,10.0,East,11.5,-,N/A,,Clear,90,2011-10-09 14:55:00
10:55 AM,78.3,61.5,56,30.09,10.0,East,11.5,-,N/A,,Clear,80,2011-10-09 15:55:00
11:55 AM,80.8,62.2,53,30.07,10.0,East,13.8,19.6,N/A,,Clear,90,2011-10-09 16:55:00
12:55 PM,83.7,62.6,49,30.05,10.0,East,12.7,-,N/A,,Partly Cloudy,90,2011-10-09 17:55:00
1:55 PM,82.0,62.1,51,30.02,10.0,East,10.4,-,N/A,,Clear,90,2011-10-09 18:55:00
2:55 PM,82.2,62.8,52,30.00,10.0,ENE,15.0,19.6,N/A,,Clear,70,2011-10-09 19:55:00
3:55 PM,80.1,63.3,56,29.99,10.0,ENE,13.8,-,N/A,,Partly Cloudy,60,2011-10-09 20:55:00
4:55 PM,80.8,63.9,56,29.98,10.0,East,8.1,-,N/A,,Partly Cloudy,80,2011-10-09 21:55:00
5:55 PM,78.8,64.0,60,29.97,10.0,ENE,9.2,-,N/A,,Clear,70,2011-10-09 22:55:00
6:55 PM,75.9,64.4,67,29.99,10.0,ENE,6.9,-,N/A,,Clear,60,2011-10-09 23:55:00
7:55 PM,72.7,65.5,78,30.00,10.0,NE,6.9,-,N/A,,Clear,40,2011-10-10 00:55:00
8:55 PM,73.8,64.4,72,30.01,10.0,ENE,10.4,-,N/A,,Clear,60,2011-10-10 01:55:00
9:55 PM,70.7,65.5,83,30.02,10.0,NE,9.2,-,N/A,,Clear,40,2011-10-10 02:55:00
10:55 PM,69.8,64.6,83,30.02,10.0,NE,8.1,-,N/A,,Clear,50,2011-10-10 03:55:00
11:55 PM,68.9,63.3,82,30.01,10.0,NE,8.1,-,N/A,,Clear,50,2011-10-10 04:55:00